Ana Sayfa
METAR-TAF:

METAR-TAF

Havaalanları :

Ponca City, Oklahoma, Amerika Birleşik Devletleri

Enlem: 36-43-50N, Boylam: 097-05-59W, yükseklik: 307 m

Güncel hava durumu gözlemi

Rapor saat 03:53 UTC de 26 dakika önce yapıldı.
Rüzgar kuzeydoğudan 4 kt
Sıcaklık -1°C
Nem 69%
Basınç 1030 hPa
Görüş mesafesi: 16.1 km
Açık gökyüzü

METAR: KPNC 190353Z AUTO 05004KT 10SM CLR M01/M06 A3041 RMK AO2 SLP303 T10111056

Saat: 22:19 (04:19 UTC)

Tahmin

Rapor saat 23:20 UTC de 4 saat ve 59 dakika önce yapıldı.
Ayın 19'si saat 00 UTC'den ayın 19'si saat 24 UTC'ye kadar geçerli Tahmin
Rüzgar kuzeydoğudan 8 kt
Görüş mesafesi: 10 km
25000 ft yükseklikte parçalı bulutlu
Ayın 19'si saat 1300 UTC'den
Rüzgar doğu/kuzeydoğudan 10 kt
Görüş mesafesi: 10 km
8000 ft yükseklikte parçalı çok bulutlu

TAF: KPNC 182320Z 1900/1924 04008KT P6SM SCT250 FM191300 07010KT P6SM BKN080

4.000'den fazla havaalanı için hava durumu gözlemleri ve tahminleri (METAR ve TAF raporları).

Kullanılabilir istasyonlar harita üzerinde sarı ve kırmızı noktalarla gösterilir.

İstasyonun adını görmek için fareyi noktanın üzerinde gezdirin.

Sonrasında hava gözlem ve tahminlerini görmek için tıklayın.

Haritayı değiştirmek için: yaklaştırmak için siyah artı işaretli yeşil düğmeye ve uzaklaştırmak için de eksi işaretli düğmeye hızla tıklayın; bitişik haritalar için yeşil okları kullanın.


METAR-TAF: